createdAt,value
2023-05-10T00:00:13.361Z,18.05
2023-05-10T00:02:44.225Z,18.85
2023-05-10T00:05:12.644Z,19.27
2023-05-10T00:07:41.345Z,19.52
2023-05-10T00:10:10.891Z,18.52
2023-05-10T00:12:39.437Z,19.33
2023-05-10T00:15:10.246Z,16.40
2023-05-10T00:17:38.607Z,17.80
2023-05-10T00:20:10.708Z,17.83
2023-05-10T00:22:39.164Z,18.33
2023-05-10T00:25:10.273Z,20.50
2023-05-10T00:27:38.587Z,19.98
2023-05-10T00:30:08.909Z,19.95
2023-05-10T00:32:37.501Z,20.15
2023-05-10T00:35:08.882Z,19.63
2023-05-10T00:37:37.203Z,19.25
2023-05-10T00:40:06.950Z,17.85
2023-05-10T00:42:35.528Z,17.90
2023-05-10T00:45:03.922Z,20.33
2023-05-10T00:47:32.619Z,19.85
2023-05-10T00:50:02.463Z,19.60
2023-05-10T00:52:32.986Z,19.90
2023-05-10T00:55:01.620Z,18.38
2023-05-10T00:57:30.105Z,16.00
2023-05-10T00:59:59.822Z,18.65
2023-05-10T01:02:28.397Z,18.15
2023-05-10T01:04:57.422Z,18.67
2023-05-10T01:07:25.999Z,18.77
2023-05-10T01:09:56.386Z,19.52
2023-05-10T01:12:24.894Z,17.00
2023-05-10T01:14:53.644Z,20.40
2023-05-10T01:17:23.288Z,19.33
2023-05-10T01:19:52.449Z,19.70
2023-05-10T01:23:02.823Z,19.70
2023-05-10T01:26:14.658Z,21.98
2023-05-10T01:29:34.342Z,21.38
2023-05-10T01:32:30.356Z,19.63
2023-05-10T01:35:05.907Z,18.92
2023-05-10T01:37:44.847Z,19.80
2023-05-10T01:40:24.386Z,20.85
2023-05-10T01:42:56.664Z,19.60
2023-05-10T01:45:34.260Z,18.98
2023-05-10T01:48:10.217Z,19.10
2023-05-10T01:50:44.117Z,22.25
2023-05-10T01:53:14.526Z,21.30
2023-05-10T01:55:49.173Z,21.50
2023-05-10T01:58:23.540Z,21.98
2023-05-10T02:00:54.720Z,22.20
2023-05-10T02:03:28.446Z,20.88
2023-05-10T02:05:58.580Z,21.98
2023-05-10T02:08:28.005Z,20.15
2023-05-10T02:10:58.595Z,20.77
2023-05-10T02:13:30.029Z,22.48
2023-05-10T02:15:59.992Z,22.95
2023-05-10T02:18:31.131Z,21.25
2023-05-10T02:21:01.304Z,21.92
2023-05-10T02:23:30.995Z,22.63
2023-05-10T02:26:01.617Z,22.90
2023-05-10T02:28:31.732Z,21.65
2023-05-10T02:31:00.874Z,23.73
2023-05-10T02:33:32.776Z,21.40
2023-05-10T02:36:02.240Z,22.10
2023-05-10T02:38:31.691Z,22.83
2023-05-10T02:41:01.724Z,23.50
2023-05-10T02:43:32.664Z,22.27
2023-05-10T02:46:01.796Z,22.20
2023-05-10T02:48:32.008Z,22.30
2023-05-10T02:51:08.163Z,21.98
2023-05-10T02:53:41.026Z,22.45
2023-05-10T02:56:19.553Z,23.20
2023-05-10T02:58:48.266Z,22.98
2023-05-10T03:01:16.715Z,23.42
2023-05-10T03:03:46.718Z,22.13
2023-05-10T03:06:15.369Z,23.27
2023-05-10T03:08:43.873Z,21.73
2023-05-10T03:11:28.609Z,23.95
2023-05-10T03:14:13.008Z,20.95
2023-05-10T03:16:49.324Z,24.35
2023-05-10T03:19:27.106Z,22.80
2023-05-10T03:21:57.301Z,24.58
2023-05-10T03:24:30.142Z,24.73
2023-05-10T03:27:03.830Z,24.92
2023-05-10T03:29:33.645Z,24.08
2023-05-10T03:32:02.888Z,24.23
2023-05-10T03:34:33.390Z,23.30
2023-05-10T03:37:02.242Z,24.45
2023-05-10T03:39:30.584Z,25.60
2023-05-10T03:41:58.994Z,23.67
2023-05-10T03:44:27.361Z,27.08
2023-05-10T03:46:59.426Z,25.60
2023-05-10T03:49:27.846Z,24.92
2023-05-10T03:51:57.892Z,26.60
2023-05-10T03:54:26.885Z,24.95
2023-05-10T03:56:55.400Z,24.80
2023-05-10T03:59:23.777Z,25.15
2023-05-10T04:01:52.101Z,28.10
2023-05-10T04:04:22.208Z,26.98
2023-05-10T04:06:50.843Z,25.98
2023-05-10T04:09:20.716Z,26.58
2023-05-10T04:11:49.102Z,28.10
2023-05-10T04:14:17.496Z,28.52
2023-05-10T04:16:46.021Z,28.38
2023-05-10T04:19:14.413Z,28.73
2023-05-10T04:21:43.019Z,29.60
2023-05-10T04:24:12.295Z,29.73
2023-05-10T04:26:43.148Z,29.52
2023-05-10T04:29:11.529Z,32.92
2023-05-10T04:31:39.920Z,31.83
2023-05-10T04:34:08.307Z,29.52
2023-05-10T04:36:37.667Z,25.20
2023-05-10T04:39:07.750Z,28.08
2023-05-10T04:41:36.204Z,29.20
2023-05-10T04:44:06.929Z,27.80
2023-05-10T04:46:35.414Z,27.27
2023-05-10T04:49:03.770Z,29.38
2023-05-10T04:51:32.370Z,30.00
2023-05-10T04:54:06.651Z,33.28
2023-05-10T04:56:35.359Z,35.88
2023-05-10T04:59:05.215Z,34.30
2023-05-10T05:01:33.591Z,34.80
2023-05-10T05:04:02.599Z,35.90
2023-05-10T05:06:30.870Z,35.03
2023-05-10T05:08:59.601Z,33.22
2023-05-10T05:11:28.007Z,32.63
2023-05-10T05:13:56.341Z,33.63
2023-05-10T05:16:26.574Z,33.90
2023-05-10T05:18:55.327Z,32.03
2023-05-10T05:21:23.853Z,31.48
2023-05-10T05:23:52.303Z,31.08
2023-05-10T05:26:20.663Z,27.77
2023-05-10T05:28:49.853Z,29.17
2023-05-10T05:31:18.800Z,28.10
2023-05-10T05:33:48.973Z,29.25
2023-05-10T05:36:17.558Z,28.60
2023-05-10T05:38:46.042Z,28.65
2023-05-10T05:41:14.571Z,29.05
2023-05-10T05:43:43.325Z,31.90
2023-05-10T05:46:11.942Z,31.35
2023-05-10T05:48:40.434Z,28.85
2023-05-10T05:51:10.324Z,27.02
2023-05-10T05:53:38.761Z,26.05
2023-05-10T05:56:08.916Z,25.67
2023-05-10T05:58:37.539Z,25.65
2023-05-10T06:01:06.118Z,22.65
2023-05-10T06:03:34.940Z,22.27
2023-05-10T06:06:03.402Z,22.95
2023-05-10T06:08:34.911Z,23.52
2023-05-10T06:11:05.047Z,21.08
2023-05-10T06:13:36.287Z,20.17
2023-05-10T06:16:05.754Z,23.75
2023-05-10T06:18:34.135Z,24.25
2023-05-10T06:21:02.715Z,24.35
2023-05-10T06:23:33.153Z,25.13
2023-05-10T06:26:01.517Z,22.13
2023-05-10T06:28:29.889Z,23.85
2023-05-10T06:30:58.500Z,21.23
2023-05-10T06:33:27.393Z,24.67
2023-05-10T06:35:55.807Z,24.33
2023-05-10T06:38:24.278Z,22.42
2023-05-10T06:40:54.119Z,23.80
2023-05-10T06:43:22.731Z,24.95
2023-05-10T06:45:51.295Z,25.42
2023-05-10T06:48:19.866Z,24.90
2023-05-10T06:50:48.789Z,24.98
2023-05-10T06:53:17.570Z,25.50
2023-05-10T06:55:46.242Z,24.67
2023-05-10T06:58:17.049Z,25.30
2023-05-10T07:00:46.613Z,23.38
2023-05-10T07:03:15.198Z,23.60
2023-05-10T07:05:43.792Z,25.08
2023-05-10T07:08:12.154Z,24.60
2023-05-10T07:10:40.759Z,25.35
2023-05-10T07:13:09.514Z,29.38
2023-05-10T07:15:39.886Z,30.67
2023-05-10T07:18:08.367Z,29.88
2023-05-10T07:20:36.913Z,31.88
2023-05-10T07:23:05.341Z,31.23
2023-05-10T07:25:33.746Z,28.27
2023-05-10T07:28:02.358Z,28.90
2023-05-10T07:30:30.707Z,27.90
2023-05-10T07:33:01.122Z,27.42
2023-05-10T07:35:29.525Z,25.30
2023-05-10T07:37:57.837Z,24.10
2023-05-10T07:40:26.265Z,21.95
2023-05-10T07:42:54.669Z,22.35
2023-05-10T07:45:23.191Z,20.50
2023-05-10T07:47:51.581Z,18.23
2023-05-10T07:50:22.579Z,18.92
2023-05-10T07:52:51.032Z,18.45
2023-05-10T07:55:22.169Z,16.80
2023-05-10T07:57:50.938Z,19.08
2023-05-10T08:00:21.480Z,19.60
2023-05-10T08:02:50.530Z,20.15
2023-05-10T08:05:20.528Z,16.42
2023-05-10T08:07:49.108Z,16.30
2023-05-10T08:10:17.946Z,17.92
2023-05-10T08:12:46.610Z,16.92
2023-05-10T08:15:15.316Z,17.85
2023-05-10T08:17:44.228Z,19.20
2023-05-10T08:20:13.886Z,18.10
2023-05-10T08:22:43.722Z,18.50
2023-05-10T08:25:12.362Z,18.38
2023-05-10T08:27:40.854Z,18.05
2023-05-10T08:30:11.601Z,14.68
2023-05-10T08:32:40.133Z,13.80
2023-05-10T08:35:08.912Z,13.30
2023-05-10T08:37:37.344Z,10.90
2023-05-10T08:40:09.232Z,11.20
2023-05-10T08:42:39.124Z,8.57
2023-05-10T08:45:10.131Z,9.05
2023-05-10T08:47:40.148Z,9.45
2023-05-10T08:50:10.132Z,9.38
2023-05-10T08:52:42.804Z,9.02
2023-05-10T08:55:13.146Z,9.00
2023-05-10T08:57:41.600Z,8.32
2023-05-10T09:00:12.215Z,7.93
2023-05-10T09:02:40.735Z,8.55
2023-05-10T09:05:11.604Z,8.98
2023-05-10T09:07:40.119Z,9.55
2023-05-10T09:10:12.486Z,9.25
2023-05-10T09:12:41.286Z,8.98
2023-05-10T09:15:11.744Z,7.35
2023-05-10T09:17:43.946Z,7.97
2023-05-10T09:20:12.706Z,6.63
2023-05-10T09:22:41.184Z,6.60
2023-05-10T09:25:13.672Z,7.00
2023-05-10T09:27:46.010Z,6.80
2023-05-10T09:30:26.943Z,7.07
2023-05-10T09:32:56.202Z,6.00
2023-05-10T09:35:29.497Z,6.72
2023-05-10T09:38:02.014Z,7.95
2023-05-10T09:40:33.130Z,6.95
2023-05-10T09:43:04.066Z,7.28
2023-05-10T09:45:38.264Z,7.05
2023-05-10T09:48:08.053Z,7.13
2023-05-10T09:50:36.582Z,7.15
2023-05-10T09:53:05.788Z,7.15
2023-05-10T09:55:46.425Z,6.28
2023-05-10T09:58:15.766Z,6.88
2023-05-10T10:00:46.736Z,6.80
2023-05-10T10:03:18.299Z,6.68
2023-05-10T10:05:47.855Z,6.45
2023-05-10T10:08:17.595Z,6.82
2023-05-10T10:10:47.777Z,7.05
2023-05-10T10:13:16.782Z,6.32
2023-05-10T10:15:47.016Z,7.05
2023-05-10T10:18:16.965Z,6.78
2023-05-10T10:20:45.649Z,6.88
2023-05-10T10:23:16.502Z,7.13
2023-05-10T10:25:49.975Z,6.63
2023-05-10T10:28:34.939Z,6.25
2023-05-10T10:31:17.996Z,6.32
2023-05-10T10:34:02.029Z,6.55
2023-05-10T10:36:31.415Z,7.00
2023-05-10T10:39:01.892Z,6.40
2023-05-10T10:41:34.399Z,6.10
2023-05-10T10:44:35.937Z,6.50
2023-05-10T10:47:09.718Z,5.43
2023-05-10T10:49:48.137Z,5.30
2023-05-10T10:52:30.959Z,5.35
2023-05-10T10:55:06.445Z,5.97
2023-05-10T10:57:47.671Z,6.30
2023-05-10T11:00:26.230Z,6.50
2023-05-10T11:02:57.328Z,6.68
2023-05-10T11:05:44.801Z,6.63
2023-05-10T11:08:19.848Z,7.05
2023-05-10T11:11:08.941Z,8.63
2023-05-10T11:13:43.073Z,7.65
2023-05-10T11:16:18.880Z,6.30
2023-05-10T11:19:03.064Z,8.27
2023-05-10T11:21:32.408Z,9.18
2023-05-10T11:24:07.111Z,11.20
2023-05-10T11:26:38.525Z,10.93
2023-05-10T11:29:08.374Z,10.77
2023-05-10T11:31:37.508Z,10.55
2023-05-10T11:34:06.096Z,9.60
2023-05-10T11:36:37.883Z,10.18
2023-05-10T11:39:07.674Z,10.00
2023-05-10T11:41:36.488Z,9.00
2023-05-10T11:44:04.951Z,7.97
2023-05-10T11:46:35.126Z,8.07
2023-05-10T11:49:05.598Z,7.63
2023-05-10T11:51:37.976Z,6.40
2023-05-10T11:54:10.575Z,6.40
2023-05-10T11:56:39.642Z,6.57
2023-05-10T11:59:09.103Z,6.53
2023-05-10T12:01:39.356Z,7.35
2023-05-10T12:04:08.129Z,6.82
2023-05-10T12:06:43.452Z,7.35
2023-05-10T12:09:12.016Z,6.25
2023-05-10T12:11:44.648Z,6.70
2023-05-10T12:14:13.458Z,5.75
2023-05-10T12:16:45.670Z,6.13
2023-05-10T12:19:14.354Z,5.68
2023-05-10T12:21:43.051Z,6.20
2023-05-10T12:24:11.560Z,6.35
2023-05-10T12:26:40.297Z,6.22
2023-05-10T12:29:16.890Z,5.80
2023-05-10T12:32:01.257Z,5.32
2023-05-10T12:34:37.514Z,4.88
2023-05-10T12:37:12.449Z,4.25
2023-05-10T12:39:45.040Z,3.97
2023-05-10T12:42:14.135Z,3.75
2023-05-10T12:44:42.567Z,3.85
2023-05-10T12:47:24.632Z,4.68
2023-05-10T12:49:53.202Z,3.92
2023-05-10T12:52:21.540Z,4.63
2023-05-10T12:54:50.171Z,4.13
2023-05-10T12:57:19.060Z,4.32
2023-05-10T12:59:47.846Z,4.18
2023-05-10T13:02:19.603Z,3.70
2023-05-10T13:04:50.808Z,4.18
2023-05-10T13:07:27.722Z,4.05
2023-05-10T13:09:56.026Z,4.45
2023-05-10T13:12:24.539Z,4.07
2023-05-10T13:14:53.378Z,3.42
2023-05-10T13:17:23.089Z,4.07
2023-05-10T13:19:51.511Z,3.80
2023-05-10T13:22:28.746Z,4.32
2023-05-10T13:25:05.827Z,4.07
2023-05-10T13:27:34.177Z,4.35
2023-05-10T13:30:06.748Z,4.35
2023-05-10T13:32:37.403Z,4.63
2023-05-10T13:35:07.200Z,5.47
2023-05-10T13:37:38.226Z,5.00
2023-05-10T13:40:08.624Z,5.07
2023-05-10T13:42:37.272Z,6.15
2023-05-10T13:45:07.059Z,6.53
2023-05-10T13:47:37.402Z,7.00
2023-05-10T13:50:06.903Z,6.80
2023-05-10T13:52:35.340Z,7.32
2023-05-10T13:55:04.011Z,8.00
2023-05-10T13:57:32.522Z,6.07
2023-05-10T14:00:01.455Z,5.85
2023-05-10T14:02:30.035Z,6.50
2023-05-10T14:04:59.951Z,5.07
2023-05-10T14:07:28.396Z,4.57
2023-05-10T14:09:57.151Z,4.35
2023-05-10T14:12:25.600Z,4.13
2023-05-10T14:14:54.310Z,5.25
2023-05-10T14:17:23.271Z,4.50
2023-05-10T14:19:51.758Z,4.55
2023-05-10T14:22:21.838Z,4.78
2023-05-10T14:24:50.277Z,4.50
2023-05-10T14:27:19.114Z,5.40
2023-05-10T14:29:47.686Z,4.93
2023-05-10T14:32:16.338Z,4.80
2023-05-10T14:34:44.709Z,4.60
2023-05-10T14:37:13.561Z,4.28
2023-05-10T14:39:43.859Z,4.40
2023-05-10T14:42:12.247Z,4.80
2023-05-10T14:44:40.844Z,4.65
2023-05-10T14:47:11.659Z,4.60
2023-05-10T14:49:41.665Z,4.55
2023-05-10T14:52:10.063Z,4.80
2023-05-10T14:54:38.417Z,4.28
2023-05-10T14:57:08.257Z,4.47
2023-05-10T14:59:36.596Z,3.35
2023-05-10T15:02:06.569Z,3.72
2023-05-10T15:04:35.388Z,4.25
2023-05-10T15:07:05.167Z,4.35
2023-05-10T15:09:33.601Z,4.45
2023-05-10T15:12:03.144Z,4.97
2023-05-10T15:14:37.194Z,5.43
2023-05-10T15:17:05.973Z,6.03
2023-05-10T15:19:34.635Z,6.90
2023-05-10T15:22:03.363Z,7.65
2023-05-10T15:24:31.726Z,7.93
2023-05-10T15:27:00.042Z,8.65
2023-05-10T15:29:28.449Z,8.70
2023-05-10T15:31:58.249Z,8.65
2023-05-10T15:34:26.757Z,9.25
2023-05-10T15:36:55.144Z,8.45
2023-05-10T15:39:23.608Z,8.35
2023-05-10T15:41:52.034Z,8.98
2023-05-10T15:44:20.377Z,8.35
2023-05-10T15:46:49.189Z,8.85
2023-05-10T15:49:19.305Z,7.93
2023-05-10T15:51:47.830Z,8.30
2023-05-10T15:54:16.269Z,7.40
2023-05-10T15:56:44.598Z,7.15
2023-05-10T15:59:13.600Z,6.97
2023-05-10T16:01:42.813Z,6.72
2023-05-10T16:04:11.256Z,6.20
2023-05-10T16:06:41.919Z,6.65
2023-05-10T16:09:10.788Z,6.82
2023-05-10T16:11:39.317Z,6.88
2023-05-10T16:14:08.300Z,6.90
2023-05-10T16:16:37.184Z,5.88
2023-05-10T16:19:05.607Z,5.75
2023-05-10T16:21:34.359Z,6.00
2023-05-10T16:24:05.264Z,5.35
2023-05-10T16:26:36.685Z,5.70
2023-05-10T16:29:05.095Z,4.53
2023-05-10T16:31:33.505Z,5.10
2023-05-10T16:34:02.258Z,4.70
2023-05-10T16:36:31.230Z,5.22
2023-05-10T16:39:00.807Z,5.32
2023-05-10T16:41:34.978Z,5.45
2023-05-10T16:44:04.121Z,4.90
2023-05-10T16:46:33.203Z,5.07
2023-05-10T16:49:02.019Z,5.47
2023-05-10T16:51:30.449Z,5.80
2023-05-10T16:53:59.023Z,4.85
2023-05-10T16:56:27.544Z,5.65
2023-05-10T16:58:57.998Z,6.00
2023-05-10T17:01:27.182Z,6.47
2023-05-10T17:03:55.984Z,7.18
2023-05-10T17:06:24.510Z,6.93
2023-05-10T17:08:53.105Z,8.13
2023-05-10T17:11:21.926Z,7.93
2023-05-10T17:13:52.427Z,9.38
2023-05-10T17:16:22.465Z,9.15
2023-05-10T17:18:50.912Z,8.50
2023-05-10T17:21:19.520Z,9.35
2023-05-10T17:23:48.037Z,8.77
2023-05-10T17:26:17.101Z,8.20
2023-05-10T17:28:45.669Z,8.13
2023-05-10T17:31:13.980Z,7.15
2023-05-10T17:33:43.819Z,7.50
2023-05-10T17:36:12.447Z,6.80
2023-05-10T17:38:40.761Z,6.95
2023-05-10T17:41:09.029Z,6.95
2023-05-10T17:43:37.402Z,6.97
2023-05-10T17:46:05.761Z,6.97
2023-05-10T17:48:34.104Z,6.78
2023-05-10T17:51:04.027Z,7.63
2023-05-10T17:53:32.662Z,7.00
2023-05-10T17:56:01.657Z,7.65
2023-05-10T17:58:30.405Z,7.20
2023-05-10T18:00:58.763Z,7.40
2023-05-10T18:03:27.183Z,7.22
2023-05-10T18:05:56.239Z,8.05
2023-05-10T18:08:27.449Z,7.10
2023-05-10T18:10:55.956Z,7.70
2023-05-10T18:13:25.622Z,8.05
2023-05-10T18:15:54.214Z,7.03
2023-05-10T18:18:22.634Z,7.70
2023-05-10T18:20:56.488Z,7.65
2023-05-10T18:23:26.707Z,6.70
2023-05-10T18:25:55.115Z,6.80
2023-05-10T18:28:24.592Z,7.07
2023-05-10T18:30:53.000Z,6.85
2023-05-10T18:33:21.407Z,6.75
2023-05-10T18:35:50.091Z,6.43
2023-05-10T18:38:19.585Z,5.97
2023-05-10T18:40:49.806Z,6.57
2023-05-10T18:43:18.230Z,6.50
2023-05-10T18:45:46.686Z,5.97
2023-05-10T18:48:15.010Z,6.60
2023-05-10T18:50:43.494Z,5.85
2023-05-10T18:53:12.307Z,7.18
2023-05-10T18:55:40.832Z,6.65
2023-05-10T18:58:10.728Z,6.18
2023-05-10T19:00:39.187Z,6.70
2023-05-10T19:03:08.001Z,6.70
2023-05-10T19:05:37.225Z,6.50
2023-05-10T19:08:08.399Z,6.55
2023-05-10T19:10:37.726Z,6.45
2023-05-10T19:13:10.593Z,6.65
2023-05-10T19:15:39.359Z,6.20
2023-05-10T19:18:07.988Z,6.25
2023-05-10T19:20:36.437Z,6.43
2023-05-10T19:25:37.368Z,7.20
2023-05-10T19:28:05.750Z,6.60
2023-05-10T19:30:35.790Z,7.15
2023-05-10T19:33:06.010Z,6.50
2023-05-10T19:35:34.393Z,7.38
2023-05-10T19:38:02.909Z,6.93
2023-05-10T19:40:31.305Z,7.15
2023-05-10T19:43:00.739Z,7.35
2023-05-10T19:45:29.068Z,7.40
2023-05-10T19:47:59.189Z,8.00
2023-05-10T19:50:27.545Z,7.65
2023-05-10T19:52:58.206Z,7.43
2023-05-10T19:55:32.021Z,7.15
2023-05-10T19:58:01.625Z,7.10
2023-05-10T20:00:30.399Z,7.70
2023-05-10T20:03:00.351Z,7.38
2023-05-10T20:05:30.306Z,6.70
2023-05-10T20:07:58.693Z,6.72
2023-05-10T20:10:27.311Z,6.45
2023-05-10T20:12:55.637Z,7.05
2023-05-10T20:15:25.092Z,7.03
2023-05-10T20:17:54.064Z,7.07
2023-05-10T20:20:24.092Z,6.72
2023-05-10T20:22:52.779Z,7.40
2023-05-10T20:25:21.152Z,8.38
2023-05-10T20:27:50.901Z,8.57
2023-05-10T20:30:19.649Z,8.68
2023-05-10T20:32:48.982Z,8.80
2023-05-10T20:35:17.710Z,8.77
2023-05-10T20:37:48.439Z,10.27
2023-05-10T20:40:17.081Z,7.60
2023-05-10T20:42:45.922Z,8.35
2023-05-10T20:45:14.352Z,7.78
2023-05-10T20:47:42.914Z,8.02
2023-05-10T20:50:11.963Z,8.48
2023-05-10T20:52:40.265Z,8.75
2023-05-10T20:55:11.376Z,6.90
2023-05-10T20:57:39.745Z,8.07
2023-05-10T21:00:10.561Z,8.60
2023-05-10T21:02:38.959Z,8.02
2023-05-10T21:05:08.807Z,8.32
2023-05-10T21:07:37.169Z,7.80
2023-05-10T21:10:07.140Z,8.50
2023-05-10T21:12:36.951Z,8.77
2023-05-10T21:15:06.346Z,7.55
2023-05-10T21:17:35.077Z,8.00
2023-05-10T21:20:03.969Z,7.28
2023-05-10T21:22:32.278Z,6.43
2023-05-10T21:25:01.053Z,8.25
2023-05-10T21:27:29.420Z,7.38
2023-05-10T21:29:59.123Z,7.35
2023-05-10T21:32:27.697Z,6.13
2023-05-10T21:34:56.042Z,5.25
2023-05-10T21:37:24.527Z,4.43
2023-05-10T21:39:54.143Z,4.68
2023-05-10T21:42:22.486Z,4.50
2023-05-10T21:44:50.829Z,4.32
2023-05-10T21:47:20.577Z,3.78
2023-05-10T21:49:50.607Z,3.90
2023-05-10T21:52:19.108Z,3.42
2023-05-10T21:54:47.816Z,3.42
2023-05-10T21:57:16.249Z,3.72
2023-05-10T21:59:44.671Z,3.65
2023-05-10T22:02:13.144Z,3.90
2023-05-10T22:04:43.569Z,5.10
2023-05-10T22:07:11.963Z,6.65
2023-05-10T22:09:40.725Z,6.65
2023-05-10T22:12:09.197Z,7.22
2023-05-10T22:14:37.574Z,6.43
2023-05-10T22:17:06.139Z,6.57
2023-05-10T22:19:34.512Z,6.30
2023-05-10T22:22:04.287Z,6.53
2023-05-10T22:24:32.913Z,6.85
2023-05-10T22:27:01.451Z,6.53
2023-05-10T22:29:30.521Z,7.13
2023-05-10T22:31:59.471Z,7.53
2023-05-10T22:34:27.866Z,9.43
2023-05-10T22:36:56.663Z,10.43
2023-05-10T22:39:26.391Z,11.07
2023-05-10T22:41:54.729Z,10.55
2023-05-10T22:44:23.047Z,9.38
2023-05-10T22:46:51.779Z,10.73
2023-05-10T22:49:20.299Z,10.52
2023-05-10T22:51:48.997Z,10.40
2023-05-10T22:54:17.333Z,9.05
2023-05-10T22:56:47.547Z,10.57
2023-05-10T22:59:16.148Z,9.85
2023-05-10T23:01:44.468Z,9.90
2023-05-10T23:04:12.818Z,10.80
2023-05-10T23:06:41.376Z,9.77
2023-05-10T23:09:09.837Z,10.60
2023-05-10T23:11:38.197Z,11.02
2023-05-10T23:14:07.900Z,10.95
2023-05-10T23:16:36.706Z,10.85
2023-05-10T23:19:05.307Z,10.40
2023-05-10T23:21:33.826Z,8.70
2023-05-10T23:24:02.232Z,10.40
2023-05-10T23:26:30.544Z,10.23
2023-05-10T23:28:58.892Z,9.82
2023-05-10T23:31:28.680Z,9.27
2023-05-10T23:33:57.173Z,8.98
2023-05-10T23:36:25.567Z,9.50
2023-05-10T23:38:53.920Z,9.13
2023-05-10T23:41:22.459Z,7.88
2023-05-10T23:43:50.983Z,9.05
2023-05-10T23:46:19.362Z,9.60
2023-05-10T23:48:49.509Z,9.68
2023-05-10T23:51:17.859Z,9.32
2023-05-10T23:53:46.453Z,10.05
2023-05-10T23:56:14.905Z,10.93
2023-05-10T23:58:44.221Z,10.55
